Hlavní strana
METAR-TAF:

METAR-TAF

Letiště :

Bangui, Středoafrická republika

zeměpisná šířka: 04-24N, zeměpisná délka: 018-31E, výška: 365 m

Aktuální stav počasí

Zpráva byla vytvořena před 1 hodinou a 19 minutami, v 21:00 UTC
Bezvětří
Teplota 27°C
Vlhkost vzduchu 79%
Tlak 1011 hPa
Viditelnost 10 km a více
Žádná oblačnost pod 1500 m, nevyskytují se cumulonimby.

METAR: FEFF 252100Z 00000KT CAVOK 27/23 Q1011 NOSIG

Čas: 23:19 (22:19 UTC)


TAF: chybějící

Stav a předpovědi počasí z více než 4 000 letišť (zprávy METAR a TAF).

Červené a žluté tečky na mapě představují dostupné meteorologické stanice.

Když kurzor umístíte na tečku, zobrazí se název stanice.

Pak kliknutím zobrazíte stav a předpověď počasí.

Chcete-li změnit mapu, kliknutím na zelené tlačítko se znaménkem +mapu přiblížíte, kliknutím na zelené tlačítko se znaménkem – mapu oddálíte a kliknutím na zelené šipky přejdete na sousední mapy.


METAR-TAF: